Terminal Aerodrome Forecast
Issued by NWS

Home | Current Version | Previous Version | Text Only | Print | Product List | Glossary On
Versions: 1 2 3 4 5 6 7 8 9 10 11 12 13 14
000
FTUS45 KFGZ 251700
TAFPRC
TAF
KPRC 251729Z 2518/2618 20012G25KT P6SM SCT030 BKN050
     FM251830 22014G28KT P6SM SCT025 BKN035
      TEMPO 2520/2524 4SM -SHRA BR BKN025
     FM260000 24011KT 3SM -SHRA BR BKN015 OVC025=

USA.gov is the U.S. government's official web portal to all federal, state and local government web resources and services.